Terminal Aerodrome Forecast
Issued by NWS

Home | Current Version | Previous Version | Text Only | Print | Product List | Glossary On
Versions: 1 2 3 4 5 6 7 8 9 10 11 12 13 14 15 16 17 18 19 20 21 22
000
FTUS46 KMFR 221720
TAFOTH
TAF
KOTH 221720Z 2218/2318 30009KT P6SM SKC
     FM222000 34017G25KT P6SM SKC
     FM230500 35010KT 6SM BR SCT005
     FM231100 35005KT 6SM BR SCT006=

USA.gov is the U.S. government's official web portal to all federal, state and local government web resources and services.